createdAt,value
2018-08-30T00:02:26.172Z,49.17
2018-08-30T00:05:06.191Z,48.87
2018-08-30T00:07:33.333Z,48.92
2018-08-30T00:10:03.872Z,49.05
2018-08-30T00:12:37.707Z,49.05
2018-08-30T00:15:06.475Z,49.06
2018-08-30T00:17:34.887Z,49.32
2018-08-30T00:20:06.488Z,49.47
2018-08-30T00:22:34.790Z,49.62
2018-08-30T00:25:03.288Z,49.74
2018-08-30T00:27:31.733Z,50.11
2018-08-30T00:30:04.951Z,50.32
2018-08-30T00:32:36.366Z,50.71
2018-08-30T00:35:04.847Z,51.25
2018-08-30T00:37:33.173Z,51.84
2018-08-30T00:40:02.944Z,52.23
2018-08-30T00:42:34.489Z,52.67
2018-08-30T00:45:02.960Z,52.99
2018-08-30T00:47:31.443Z,53.28
2018-08-30T00:50:02.005Z,53.56
2018-08-30T00:52:28.677Z,53.81
2018-08-30T00:54:57.082Z,53.99
2018-08-30T00:57:28.065Z,54.42
2018-08-30T00:59:56.431Z,54.72
2018-08-30T01:02:29.867Z,54.99
2018-08-30T01:04:57.143Z,55.11
2018-08-30T01:07:28.519Z,55.21
2018-08-30T01:10:01.540Z,55.23
2018-08-30T01:12:32.040Z,55.42
2018-08-30T01:15:00.450Z,55.79
2018-08-30T01:17:28.954Z,55.85
2018-08-30T01:19:57.313Z,55.95
2018-08-30T01:22:28.336Z,56.14
2018-08-30T01:24:56.722Z,56.17
2018-08-30T01:27:25.000Z,56.09
2018-08-30T01:29:56.464Z,56.20
2018-08-30T01:32:24.846Z,56.28
2018-08-30T01:34:55.181Z,56.46
2018-08-30T01:37:25.043Z,56.32
2018-08-30T01:39:53.511Z,56.14
2018-08-30T01:42:21.923Z,56.10
2018-08-30T01:44:57.327Z,56.16
2018-08-30T01:47:25.875Z,55.97
2018-08-30T01:50:02.972Z,56.14
2018-08-30T01:52:53.490Z,55.82
2018-08-30T01:55:29.167Z,55.83
2018-08-30T01:58:00.325Z,55.79
2018-08-30T02:00:43.488Z,55.76
2018-08-30T02:03:12.920Z,55.75
2018-08-30T02:05:44.733Z,55.68
2018-08-30T02:08:14.065Z,55.64
2018-08-30T02:10:51.442Z,55.65
2018-08-30T02:13:42.066Z,55.61
2018-08-30T02:16:19.047Z,55.50
2018-08-30T02:18:52.677Z,55.56
2018-08-30T02:21:21.340Z,55.67
2018-08-30T02:23:52.917Z,55.67
2018-08-30T02:26:24.494Z,55.64
2018-08-30T02:28:55.664Z,55.78
2018-08-30T02:31:24.198Z,55.88
2018-08-30T02:33:52.557Z,56.32
2018-08-30T02:36:23.977Z,56.33
2018-08-30T02:38:52.241Z,56.60
2018-08-30T02:41:20.505Z,56.96
2018-08-30T02:43:51.554Z,57.29
2018-08-30T02:46:20.179Z,57.74
2018-08-30T02:48:48.706Z,58.26
2018-08-30T02:51:20.683Z,58.52
2018-08-30T02:53:53.176Z,58.98
2018-08-30T02:56:24.800Z,59.47
2018-08-30T02:58:53.213Z,59.82
2018-08-30T03:01:22.314Z,60.41
2018-08-30T03:03:55.435Z,60.60
2018-08-30T03:06:26.257Z,61.10
2018-08-30T03:08:56.838Z,60.89
2018-08-30T03:11:29.452Z,61.62
2018-08-30T03:13:55.432Z,61.83
2018-08-30T03:16:23.946Z,61.38
2018-08-30T03:18:52.544Z,61.55
2018-08-30T03:21:21.076Z,61.68
2018-08-30T03:23:49.421Z,62.01
2018-08-30T03:26:22.902Z,61.78
2018-08-30T03:28:51.592Z,62.24
2018-08-30T03:31:25.982Z,62.04
2018-08-30T03:33:57.470Z,62.67
2018-08-30T03:36:32.298Z,62.16
2018-08-30T03:39:00.812Z,62.57
2018-08-30T03:41:31.991Z,62.40
2018-08-30T03:44:00.785Z,62.95
2018-08-30T03:46:34.318Z,62.82
2018-08-30T03:49:05.620Z,63.14
2018-08-30T03:51:35.371Z,62.71
2018-08-30T03:54:02.555Z,63.22
2018-08-30T03:56:33.628Z,63.18
2018-08-30T03:59:08.754Z,63.14
2018-08-30T04:01:42.304Z,63.12
2018-08-30T04:04:10.930Z,63.29
2018-08-30T04:06:46.781Z,63.65
2018-08-30T04:09:17.647Z,63.60
2018-08-30T04:11:50.578Z,63.65
2018-08-30T04:14:19.008Z,63.76
2018-08-30T04:16:47.617Z,63.81
2018-08-30T04:19:20.948Z,63.54
2018-08-30T04:21:51.942Z,64.17
2018-08-30T04:24:23.479Z,64.01
2018-08-30T04:26:58.833Z,64.37
2018-08-30T04:29:25.015Z,64.50
2018-08-30T04:31:53.433Z,64.28
2018-08-30T04:34:21.986Z,64.28
2018-08-30T04:36:51.761Z,64.02
2018-08-30T04:39:21.257Z,64.40
2018-08-30T04:41:55.829Z,64.45
2018-08-30T04:44:24.948Z,64.17
2018-08-30T04:46:53.062Z,64.76
2018-08-30T04:49:21.292Z,65.39
2018-08-30T04:51:49.604Z,64.75
2018-08-30T04:55:09.920Z,65.23
2018-08-30T04:58:53.011Z,65.22
2018-08-30T05:05:19.445Z,65.03
2018-08-30T05:08:28.369Z,65.25
2018-08-30T05:11:18.233Z,65.18
2018-08-30T05:14:09.070Z,65.25
2018-08-30T06:03:03.159Z,66.08
2018-08-30T06:05:31.642Z,66.14
2018-08-30T06:08:00.320Z,66.05
2018-08-30T06:10:29.097Z,66.08
2018-08-30T06:12:57.640Z,66.11
2018-08-30T06:15:26.236Z,66.23
2018-08-30T06:17:54.772Z,65.89
2018-08-30T06:20:23.320Z,65.88
2018-08-30T06:22:51.890Z,66.35
2018-08-30T06:25:20.390Z,66.23
2018-08-30T06:27:48.960Z,66.66
2018-08-30T06:30:18.326Z,66.87
2018-08-30T06:32:45.835Z,66.97
2018-08-30T06:35:14.108Z,66.91
2018-08-30T06:37:42.400Z,67.08
2018-08-30T06:40:10.718Z,66.78
2018-08-30T06:42:39.004Z,66.38
2018-08-30T06:45:07.398Z,66.71
2018-08-30T06:47:35.660Z,66.61
2018-08-30T06:50:03.880Z,66.57
2018-08-30T06:52:32.182Z,66.89
2018-08-30T06:55:00.590Z,66.67
2018-08-30T06:57:28.840Z,66.83
2018-08-30T06:59:57.146Z,67.07
2018-08-30T07:02:25.404Z,67.12
2018-08-30T07:04:54.526Z,67.13
2018-08-30T07:07:22.812Z,67.42
2018-08-30T07:09:51.087Z,67.68
2018-08-30T07:12:19.484Z,67.20
2018-08-30T07:14:47.812Z,66.87
2018-08-30T07:17:16.022Z,67.00
2018-08-30T07:19:44.620Z,66.80
2018-08-30T07:22:12.916Z,66.66
2018-08-30T07:24:41.208Z,66.33
2018-08-30T07:27:09.492Z,66.89
2018-08-30T07:29:37.748Z,66.73
2018-08-30T07:32:06.639Z,66.48
2018-08-30T07:34:35.122Z,66.62
2018-08-30T07:37:03.388Z,66.89
2018-08-30T07:39:31.624Z,66.60
2018-08-30T07:42:00.071Z,66.67
2018-08-30T07:44:28.413Z,66.37
2018-08-30T07:46:56.609Z,66.75
2018-08-30T07:49:24.921Z,66.67
2018-08-30T07:51:53.316Z,66.92
2018-08-30T07:54:21.641Z,67.00
2018-08-30T07:56:50.104Z,66.57
2018-08-30T07:59:18.488Z,66.92
2018-08-30T08:01:46.956Z,67.08
2018-08-30T08:04:15.370Z,66.55
2018-08-30T08:06:43.856Z,66.69
2018-08-30T08:09:12.123Z,67.07
2018-08-30T08:11:40.401Z,67.12
2018-08-30T08:14:08.968Z,67.39
2018-08-30T08:16:37.294Z,67.21
2018-08-30T08:19:05.554Z,67.35
2018-08-30T08:21:33.848Z,66.88
2018-08-30T08:24:02.119Z,66.96
2018-08-30T08:26:30.375Z,67.18
2018-08-30T08:28:58.684Z,66.93
2018-08-30T08:31:26.948Z,67.16
2018-08-30T08:33:55.372Z,67.04
2018-08-30T08:36:23.601Z,66.60
2018-08-30T08:38:51.891Z,66.93
2018-08-30T08:41:20.195Z,67.03
2018-08-30T08:43:48.479Z,67.28
2018-08-30T08:46:16.805Z,67.02
2018-08-30T08:48:45.136Z,67.12
2018-08-30T08:51:13.415Z,67.55
2018-08-30T08:53:41.687Z,67.60
2018-08-30T08:56:09.932Z,67.09
2018-08-30T08:58:38.239Z,66.69
2018-08-30T09:01:06.806Z,66.70
2018-08-30T09:03:35.188Z,67.08
2018-08-30T09:06:03.682Z,66.89
2018-08-30T09:08:32.028Z,67.08
2018-08-30T09:11:00.170Z,66.95
2018-08-30T09:13:28.504Z,67.13
2018-08-30T09:15:56.799Z,66.57
2018-08-30T09:18:25.117Z,66.80
2018-08-30T09:20:53.473Z,67.33
2018-08-30T09:23:21.855Z,67.04
2018-08-30T09:25:50.106Z,67.68
2018-08-30T09:28:18.485Z,67.70
2018-08-30T09:30:46.924Z,67.64
2018-08-30T09:33:15.246Z,67.20
2018-08-30T09:35:43.565Z,67.68
2018-08-30T09:38:11.893Z,67.70
2018-08-30T09:40:40.272Z,67.12
2018-08-30T09:43:08.487Z,67.50
2018-08-30T09:45:36.949Z,66.98
2018-08-30T09:48:05.463Z,66.76
2018-08-30T09:50:33.715Z,66.69
2018-08-30T09:53:01.934Z,66.51
2018-08-30T09:55:30.173Z,66.37
2018-08-30T09:57:58.625Z,65.55
2018-08-30T10:00:44.651Z,66.52
2018-08-30T10:03:12.934Z,66.52
2018-08-30T10:05:41.216Z,66.17
2018-08-30T10:08:09.625Z,66.29
2018-08-30T10:10:37.843Z,66.19
2018-08-30T10:13:06.223Z,65.92
2018-08-30T10:15:34.420Z,65.90
2018-08-30T10:18:02.876Z,65.98
2018-08-30T10:20:31.208Z,66.01
2018-08-30T10:22:59.660Z,65.39
2018-08-30T10:25:27.986Z,65.26
2018-08-30T10:27:56.354Z,65.31
2018-08-30T10:30:24.607Z,65.25
2018-08-30T10:32:52.880Z,65.40
2018-08-30T10:35:21.167Z,65.26
2018-08-30T10:37:49.509Z,64.29
2018-08-30T10:40:18.040Z,64.57
2018-08-30T10:42:46.559Z,64.33
2018-08-30T10:45:14.718Z,64.29
2018-08-30T10:47:42.949Z,64.48
2018-08-30T10:50:11.287Z,64.20
2018-08-30T10:52:39.617Z,64.79
2018-08-30T10:55:07.949Z,64.92
2018-08-30T10:57:36.207Z,64.87
2018-08-30T11:00:04.641Z,65.47
2018-08-30T11:02:32.944Z,65.61
2018-08-30T11:05:01.196Z,65.16
2018-08-30T11:07:29.636Z,65.48
2018-08-30T11:09:57.966Z,65.46
2018-08-30T11:12:26.395Z,65.01
2018-08-30T11:14:54.535Z,65.23
2018-08-30T11:17:22.785Z,65.21
2018-08-30T11:19:51.114Z,65.23
2018-08-30T11:22:19.604Z,65.38
2018-08-30T11:24:48.074Z,65.64
2018-08-30T11:27:16.404Z,65.54
2018-08-30T11:29:44.683Z,65.40
2018-08-30T11:32:13.030Z,65.61
2018-08-30T11:34:41.389Z,65.54
2018-08-30T11:37:09.685Z,64.91
2018-08-30T11:39:37.961Z,64.88
2018-08-30T11:42:06.304Z,64.74
2018-08-30T11:44:34.566Z,64.69
2018-08-30T11:47:02.889Z,64.89
2018-08-30T11:49:31.205Z,64.89
2018-08-30T11:51:59.452Z,64.83
2018-08-30T11:54:27.769Z,65.17
2018-08-30T11:56:56.128Z,64.84
2018-08-30T11:59:24.363Z,64.32
2018-08-30T12:01:52.691Z,64.37
2018-08-30T12:04:20.949Z,64.42
2018-08-30T12:06:49.368Z,64.15
2018-08-30T12:09:17.573Z,64.18
2018-08-30T12:11:45.946Z,64.33
2018-08-30T12:14:14.153Z,64.02
2018-08-30T12:16:42.509Z,63.48
2018-08-30T12:19:10.965Z,63.06
2018-08-30T12:21:39.180Z,63.78
2018-08-30T12:24:13.372Z,62.87
2018-08-30T12:26:41.789Z,63.03
2018-08-30T12:29:15.364Z,63.06
2018-08-30T12:31:43.987Z,63.15
2018-08-30T12:34:12.277Z,63.08
2018-08-30T12:36:43.421Z,63.38
2018-08-30T12:39:13.564Z,62.48
2018-08-30T12:41:42.000Z,62.28
2018-08-30T12:44:10.581Z,62.28
2018-08-30T12:46:39.030Z,62.75
2018-08-30T12:49:07.344Z,62.43
2018-08-30T12:51:36.069Z,62.13
2018-08-30T12:54:04.235Z,62.49
2018-08-30T12:56:32.760Z,62.57
2018-08-30T12:59:17.361Z,62.34
2018-08-30T13:01:46.447Z,61.69
2018-08-30T13:04:15.023Z,62.04
2018-08-30T13:07:01.856Z,62.22
2018-08-30T13:09:30.144Z,63.08
2018-08-30T13:11:59.707Z,63.96
2018-08-30T13:14:28.420Z,64.50
2018-08-30T13:16:56.950Z,65.47
2018-08-30T13:19:25.603Z,65.76
2018-08-30T13:21:53.741Z,65.41
2018-08-30T13:24:22.357Z,65.70
2018-08-30T13:26:50.691Z,65.21
2018-08-30T13:29:19.225Z,64.89
2018-08-30T13:31:47.645Z,64.86
2018-08-30T13:34:16.510Z,64.53
2018-08-30T13:36:44.828Z,64.79
2018-08-30T13:39:13.783Z,64.05
2018-08-30T13:41:42.705Z,63.86
2018-08-30T13:44:11.780Z,63.58
2018-08-30T13:46:41.083Z,63.57
2018-08-30T13:49:10.109Z,63.16
2018-08-30T13:51:38.272Z,62.48
2018-08-30T13:54:06.599Z,62.29
2018-08-30T13:56:34.926Z,62.03
2018-08-30T13:59:03.363Z,61.74
2018-08-30T14:01:31.892Z,61.71
2018-08-30T14:04:00.173Z,61.68
2018-08-30T14:06:28.597Z,61.43
2018-08-30T14:08:57.101Z,61.14
2018-08-30T14:11:25.242Z,60.26
2018-08-30T14:13:53.606Z,60.49
2018-08-30T14:16:21.558Z,60.48
2018-08-30T14:18:50.251Z,60.00
2018-08-30T14:21:18.474Z,60.14
2018-08-30T14:23:46.826Z,59.59
2018-08-30T14:26:15.112Z,59.98
2018-08-30T14:28:43.464Z,60.04
2018-08-30T14:31:11.818Z,59.95
2018-08-30T14:33:40.131Z,59.90
2018-08-30T14:36:08.410Z,59.69
2018-08-30T14:38:36.760Z,59.13
2018-08-30T14:41:05.498Z,58.94
2018-08-30T14:43:33.585Z,59.08
2018-08-30T14:46:01.927Z,58.78
2018-08-30T14:48:30.150Z,58.58
2018-08-30T14:50:58.618Z,59.15
2018-08-30T14:53:27.079Z,58.45
2018-08-30T14:55:55.214Z,58.55
2018-08-30T14:58:23.542Z,58.05
2018-08-30T15:00:51.890Z,58.18
2018-08-30T15:03:20.126Z,57.54
2018-08-30T15:05:48.845Z,57.54
2018-08-30T15:08:17.018Z,57.02
2018-08-30T15:10:45.213Z,56.82
2018-08-30T15:13:13.801Z,56.83
2018-08-30T15:15:42.049Z,56.50
2018-08-30T15:18:10.351Z,56.37
2018-08-30T15:20:38.614Z,56.12
2018-08-30T15:23:07.490Z,56.41
2018-08-30T15:25:35.841Z,56.37
2018-08-30T15:28:04.606Z,56.33
2018-08-30T15:30:32.751Z,55.20
2018-08-30T15:33:01.000Z,54.94
2018-08-30T15:35:29.750Z,54.67
2018-08-30T15:45:08.588Z,54.41
2018-08-30T15:47:37.239Z,53.88
2018-08-30T15:50:05.977Z,54.07
2018-08-30T15:52:34.243Z,54.07
2018-08-30T15:55:02.530Z,54.10
2018-08-30T15:57:32.101Z,53.65
2018-08-30T16:00:06.392Z,53.70
2018-08-30T16:02:35.654Z,53.83
2018-08-30T16:05:13.426Z,53.73
2018-08-30T16:07:53.080Z,53.67
2018-08-30T16:10:50.794Z,53.43
2018-08-30T16:13:24.601Z,53.04
2018-08-30T16:16:02.199Z,53.16
2018-08-30T16:18:49.211Z,53.50
2018-08-30T16:24:09.566Z,52.73
2018-08-30T16:27:01.399Z,52.48
2018-08-30T16:33:38.742Z,51.61
2018-08-30T16:36:23.265Z,50.36
2018-08-30T16:38:50.339Z,50.51
2018-08-30T16:41:37.219Z,49.69
2018-08-30T16:44:10.553Z,49.46
2018-08-30T16:47:05.807Z,48.11
2018-08-30T16:49:41.790Z,48.00
2018-08-30T16:52:17.936Z,47.72
2018-08-30T16:55:01.925Z,47.30
2018-08-30T16:57:38.516Z,47.47
2018-08-30T17:00:10.000Z,46.64
2018-08-30T17:02:40.451Z,46.41
2018-08-30T17:05:15.663Z,45.72
2018-08-30T17:07:53.122Z,45.63
2018-08-30T17:10:21.990Z,46.25
2018-08-30T17:12:50.462Z,46.27
2018-08-30T17:15:19.213Z,46.74
2018-08-30T17:17:47.616Z,47.09
2018-08-30T17:20:37.248Z,47.21
2018-08-30T17:23:08.167Z,47.45
2018-08-30T17:25:36.817Z,47.56
2018-08-30T17:28:05.629Z,47.62
2018-08-30T17:30:33.957Z,48.05
2018-08-30T17:33:03.020Z,48.02
2018-08-30T17:35:31.208Z,48.25
2018-08-30T17:38:03.255Z,48.35
2018-08-30T17:40:31.473Z,48.58
2018-08-30T17:43:00.045Z,49.02
2018-08-30T17:45:31.416Z,48.74
2018-08-30T17:47:59.642Z,48.68
2018-08-30T17:50:28.173Z,48.33
2018-08-30T17:52:59.695Z,48.27
2018-08-30T17:55:28.350Z,48.40
2018-08-30T17:57:59.698Z,48.55
2018-08-30T18:00:28.307Z,48.70
2018-08-30T18:02:57.125Z,48.92
2018-08-30T18:05:25.830Z,49.05
2018-08-30T18:07:54.274Z,49.22
2018-08-30T18:10:22.718Z,49.42
2018-08-30T18:12:51.054Z,49.45
2018-08-30T18:15:20.930Z,49.91
2018-08-30T18:17:51.117Z,50.36
2018-08-30T18:20:23.724Z,50.41
2018-08-30T18:23:37.642Z,50.62
2018-08-30T18:26:12.597Z,50.77
2018-08-30T18:28:54.530Z,50.88
2018-08-30T18:31:52.347Z,50.99
2018-08-30T18:34:31.119Z,51.21
2018-08-30T18:37:11.856Z,51.46
2018-08-30T18:39:41.731Z,51.67
2018-08-30T18:42:12.929Z,51.73
2018-08-30T18:44:40.104Z,51.72
2018-08-30T18:47:08.570Z,52.14
2018-08-30T18:52:54.889Z,52.15
2018-08-30T18:55:27.436Z,52.59
2018-08-30T18:58:12.774Z,52.67
2018-08-30T19:05:20.071Z,52.56
2018-08-30T19:08:07.011Z,52.63
2018-08-30T19:10:41.897Z,52.79
2018-08-30T19:13:13.003Z,52.90
2018-08-30T19:16:06.472Z,53.29
2018-08-30T19:18:56.120Z,53.34
2018-08-30T19:21:30.274Z,53.46
2018-08-30T19:23:59.214Z,53.49
2018-08-30T19:26:32.809Z,53.60
2018-08-30T19:29:05.331Z,53.71
2018-08-30T19:31:43.247Z,53.45
2018-08-30T19:34:11.501Z,53.40
2018-08-30T19:36:39.734Z,53.59
2018-08-30T19:39:11.736Z,53.53
2018-08-30T19:41:42.895Z,53.32
2018-08-30T19:44:24.281Z,53.38
2018-08-30T19:46:52.898Z,53.48
2018-08-30T19:49:31.284Z,53.51
2018-08-30T19:51:57.936Z,53.64
2018-08-30T19:54:26.214Z,53.44
2018-08-30T19:56:54.621Z,53.69
2018-08-30T19:59:23.102Z,53.57
2018-08-30T20:01:51.520Z,53.53
2018-08-30T20:04:19.847Z,53.66
2018-08-30T20:06:48.279Z,53.72
2018-08-30T20:09:16.795Z,53.79
2018-08-30T20:11:45.076Z,53.83
2018-08-30T20:14:13.465Z,53.79
2018-08-30T20:16:41.799Z,53.91
2018-08-30T20:19:10.628Z,53.90
2018-08-30T20:21:41.794Z,53.90
2018-08-30T20:24:10.660Z,53.99
2018-08-30T20:26:38.899Z,53.96
2018-08-30T20:29:07.372Z,53.98
2018-08-30T20:31:35.757Z,53.82
2018-08-30T20:34:04.199Z,53.74
2018-08-30T20:36:35.720Z,53.75
2018-08-30T20:39:05.529Z,53.87
2018-08-30T20:41:34.047Z,53.81
2018-08-30T20:44:04.373Z,53.91
2018-08-30T20:46:32.778Z,53.75
2018-08-30T20:49:01.172Z,53.61
2018-08-30T20:51:29.718Z,53.90
2018-08-30T20:53:58.019Z,53.90
2018-08-30T20:56:26.318Z,54.11
2018-08-30T20:58:54.980Z,53.98
2018-08-30T21:01:25.510Z,54.24
2018-08-30T21:03:53.991Z,54.13
2018-08-30T21:06:22.362Z,54.01
2018-08-30T21:08:52.747Z,54.08
2018-08-30T21:11:25.591Z,54.15
2018-08-30T21:14:23.135Z,54.07
2018-08-30T21:16:54.105Z,54.14
2018-08-30T21:19:30.047Z,54.12
2018-08-30T21:22:14.746Z,54.20
2018-08-30T21:24:54.271Z,54.62
2018-08-30T21:27:43.193Z,54.46
2018-08-30T21:30:12.195Z,54.36
2018-08-30T21:33:10.410Z,54.50
2018-08-30T21:35:39.550Z,54.74
2018-08-30T21:38:23.668Z,54.67
2018-08-30T21:40:59.803Z,54.92
2018-08-30T21:43:52.443Z,54.80
2018-08-30T21:46:41.588Z,54.80
2018-08-30T21:49:52.249Z,54.93
2018-08-30T21:52:51.138Z,54.94
2018-08-30T21:55:38.475Z,54.98
2018-08-30T21:58:34.841Z,54.98
2018-08-30T22:04:23.626Z,55.10
2018-08-30T22:07:19.696Z,55.04
2018-08-30T22:10:29.087Z,55.10
2018-08-30T22:13:12.783Z,55.26
2018-08-30T22:16:13.971Z,55.36
2018-08-30T22:19:10.284Z,55.45
2018-08-30T22:22:15.729Z,55.70
2018-08-30T22:25:04.408Z,55.78
2018-08-30T22:28:17.446Z,55.67
2018-08-30T22:31:01.670Z,55.50
2018-08-30T22:34:01.498Z,55.69
2018-08-30T22:43:30.299Z,55.80
2018-08-30T22:46:11.585Z,55.86
2018-08-30T22:48:57.761Z,55.81
2018-08-30T22:51:51.414Z,56.05
2018-08-30T22:54:30.718Z,56.00
2018-08-30T22:57:27.327Z,55.94
2018-08-30T23:00:22.188Z,55.94
2018-08-30T23:03:05.350Z,55.96
2018-08-30T23:05:54.594Z,56.04
2018-08-30T23:08:59.565Z,56.09
2018-08-30T23:12:05.556Z,56.24
2018-08-30T23:14:51.296Z,56.26
2018-08-30T23:18:05.581Z,56.32
2018-08-30T23:20:52.616Z,56.43
2018-08-30T23:23:40.342Z,56.61
2018-08-30T23:26:17.628Z,56.75
2018-08-30T23:29:32.093Z,56.74
2018-08-30T23:32:19.441Z,56.94
2018-08-30T23:35:17.102Z,56.80
2018-08-30T23:37:51.547Z,56.80
2018-08-30T23:40:48.536Z,56.88
2018-08-30T23:43:23.566Z,57.01
2018-08-30T23:49:06.074Z,57.02
2018-08-30T23:52:02.157Z,57.03
2018-08-30T23:54:55.674Z,56.99
2018-08-30T23:57:44.561Z,57.02
